KSPG/SPG METAR and TAF weather

Enter ICAO airport designator
Station Type Date Time Source
KSPG METAR 2019/12/12 16:53 UTC NOAA

KSPG 121653Z 06012KT 10SM OVC025 22/19 A3022 RMK AO2 SLP232 T02170189


Station Type Date Time Source
KSPG Decoded METAR 2019/12/12 16:53 UTC NOAA

ST PETERSBURG WHITTED AIRPORT , FL, United States (KSPG) 27-46N 082-38W 2M
Dec 12, 2019 - 11:53 AM EST / 2019.12.12 1653 UTC
Wind: from the ENE (060 degrees) at 14 MPH (12 KT):0
Visibility: 10 mile(s):0
Sky conditions: overcast
Temperature: 71.1 F (21.7 C)
Dew Point: 66.0 F (18.9 C)
Relative Humidity: 84%
Pressure (altimeter): 30.22 in. Hg (1023 hPa)
ob: KSPG 121653Z 06012KT 10SM OVC025 22/19 A3022 RMK AO2 SLP232 T02170189
cycle: 17

Station Type Date Time Source
KSPG TAF UTC NOAA

Error!

Example: see airport list